sensor_id;sensor_type;location;lat;lon;timestamp;P1;durP1;ratioP1;P2;durP2;ratioP2
13439;SDS011;6792;57.698;11.946;2022-10-13T00:02:18;10.10;;;2.08;;
13439;SDS011;6792;57.698;11.946;2022-10-13T00:04:47;8.78;;;1.80;;
13439;SDS011;6792;57.698;11.946;2022-10-13T00:07:16;9.03;;;2.30;;
13439;SDS011;6792;57.698;11.946;2022-10-13T00:09:45;6.90;;;2.12;;
13439;SDS011;6792;57.698;11.946;2022-10-13T00:12:14;9.50;;;2.47;;
13439;SDS011;6792;57.698;11.946;2022-10-13T00:14:43;6.33;;;2.08;;
13439;SDS011;6792;57.698;11.946;2022-10-13T00:17:12;11.65;;;2.22;;
13439;SDS011;6792;57.698;11.946;2022-10-13T00:19:41;6.67;;;2.20;;
13439;SDS011;6792;57.698;11.946;2022-10-13T00:22:10;13.88;;;2.67;;
13439;SDS011;6792;57.698;11.946;2022-10-13T00:24:38;10.65;;;2.00;;
13439;SDS011;6792;57.698;11.946;2022-10-13T00:27:12;7.83;;;2.17;;
13439;SDS011;6792;57.698;11.946;2022-10-13T00:29:42;13.50;;;2.77;;
13439;SDS011;6792;57.698;11.946;2022-10-13T00:32:10;11.18;;;2.25;;
13439;SDS011;6792;57.698;11.946;2022-10-13T00:34:39;11.70;;;2.27;;
13439;SDS011;6792;57.698;11.946;2022-10-13T00:37:08;12.23;;;2.33;;
13439;SDS011;6792;57.698;11.946;2022-10-13T00:39:38;10.68;;;2.30;;
13439;SDS011;6792;57.698;11.946;2022-10-13T00:42:09;10.48;;;2.47;;
13439;SDS011;6792;57.698;11.946;2022-10-13T00:47:29;8.25;;;2.10;;
13439;SDS011;6792;57.698;11.946;2022-10-13T00:49:59;12.45;;;2.40;;
13439;SDS011;6792;57.698;11.946;2022-10-13T00:52:29;14.43;;;2.62;;
13439;SDS011;6792;57.698;11.946;2022-10-13T00:54:59;10.85;;;2.33;;
13439;SDS011;6792;57.698;11.946;2022-10-13T00:57:30;13.05;;;2.47;;
13439;SDS011;6792;57.698;11.946;2022-10-13T00:59:59;18.45;;;2.87;;
13439;SDS011;6792;57.698;11.946;2022-10-13T01:02:31;10.43;;;2.55;;
13439;SDS011;6792;57.698;11.946;2022-10-13T01:05:03;9.55;;;2.58;;
13439;SDS011;6792;57.698;11.946;2022-10-13T01:07:33;9.93;;;2.40;;
13439;SDS011;6792;57.698;11.946;2022-10-13T01:10:03;13.35;;;3.12;;
13439;SDS011;6792;57.698;11.946;2022-10-13T01:12:37;12.98;;;2.75;;
13439;SDS011;6792;57.698;11.946;2022-10-13T01:15:09;12.58;;;2.60;;
13439;SDS011;6792;57.698;11.946;2022-10-13T01:17:42;10.98;;;2.72;;
13439;SDS011;6792;57.698;11.946;2022-10-13T01:20:26;5.67;;;2.40;;
13439;SDS011;6792;57.698;11.946;2022-10-13T01:23:05;8.65;;;2.80;;
13439;SDS011;6792;57.698;11.946;2022-10-13T01:25:41;12.30;;;2.67;;
13439;SDS011;6792;57.698;11.946;2022-10-13T01:28:26;10.98;;;2.40;;
13439;SDS011;6792;57.698;11.946;2022-10-13T01:31:03;8.08;;;2.50;;
13439;SDS011;6792;57.698;11.946;2022-10-13T01:33:36;13.75;;;3.17;;
13439;SDS011;6792;57.698;11.946;2022-10-13T01:36:10;12.37;;;3.00;;
13439;SDS011;6792;57.698;11.946;2022-10-13T01:38:45;14.43;;;2.80;;
13439;SDS011;6792;57.698;11.946;2022-10-13T01:41:17;15.58;;;3.35;;
13439;SDS011;6792;57.698;11.946;2022-10-13T01:43:50;17.77;;;2.98;;
13439;SDS011;6792;57.698;11.946;2022-10-13T01:46:22;15.68;;;3.20;;
13439;SDS011;6792;57.698;11.946;2022-10-13T01:48:54;11.53;;;2.85;;
13439;SDS011;6792;57.698;11.946;2022-10-13T01:51:25;13.98;;;3.12;;
13439;SDS011;6792;57.698;11.946;2022-10-13T01:53:56;7.10;;;2.90;;
13439;SDS011;6792;57.698;11.946;2022-10-13T01:56:25;10.82;;;2.70;;
13439;SDS011;6792;57.698;11.946;2022-10-13T01:58:54;10.75;;;2.90;;
13439;SDS011;6792;57.698;11.946;2022-10-13T02:01:34;12.30;;;2.70;;
13439;SDS011;6792;57.698;11.946;2022-10-13T02:04:22;8.75;;;2.80;;
13439;SDS011;6792;57.698;11.946;2022-10-13T02:06:55;12.00;;;2.85;;
13439;SDS011;6792;57.698;11.946;2022-10-13T02:09:26;10.38;;;2.65;;
13439;SDS011;6792;57.698;11.946;2022-10-13T02:11:59;10.57;;;2.70;;
13439;SDS011;6792;57.698;11.946;2022-10-13T02:14:31;10.25;;;2.20;;
13439;SDS011;6792;57.698;11.946;2022-10-13T02:17:03;16.10;;;2.77;;
13439;SDS011;6792;57.698;11.946;2022-10-13T02:19:33;11.95;;;2.40;;
13439;SDS011;6792;57.698;11.946;2022-10-13T02:22:05;15.98;;;3.37;;
13439;SDS011;6792;57.698;11.946;2022-10-13T02:24:34;11.55;;;2.70;;
13439;SDS011;6792;57.698;11.946;2022-10-13T02:27:03;15.05;;;3.30;;
13439;SDS011;6792;57.698;11.946;2022-10-13T02:29:33;10.15;;;2.98;;
13439;SDS011;6792;57.698;11.946;2022-10-13T02:32:03;6.83;;;2.30;;
13439;SDS011;6792;57.698;11.946;2022-10-13T02:34:32;17.17;;;3.00;;
13439;SDS011;6792;57.698;11.946;2022-10-13T02:37:01;10.63;;;2.62;;
13439;SDS011;6792;57.698;11.946;2022-10-13T02:39:30;5.85;;;2.17;;
13439;SDS011;6792;57.698;11.946;2022-10-13T02:41:59;16.97;;;2.67;;
13439;SDS011;6792;57.698;11.946;2022-10-13T02:44:28;8.70;;;2.58;;
13439;SDS011;6792;57.698;11.946;2022-10-13T02:46:57;14.53;;;2.35;;
13439;SDS011;6792;57.698;11.946;2022-10-13T02:49:26;14.73;;;2.70;;
13439;SDS011;6792;57.698;11.946;2022-10-13T02:51:55;11.15;;;2.37;;
13439;SDS011;6792;57.698;11.946;2022-10-13T02:54:24;8.20;;;2.65;;
13439;SDS011;6792;57.698;11.946;2022-10-13T02:56:53;10.00;;;2.60;;
13439;SDS011;6792;57.698;11.946;2022-10-13T02:59:21;12.15;;;2.60;;
13439;SDS011;6792;57.698;11.946;2022-10-13T03:01:50;11.20;;;2.90;;
13439;SDS011;6792;57.698;11.946;2022-10-13T03:04:19;8.00;;;2.75;;
13439;SDS011;6792;57.698;11.946;2022-10-13T03:06:48;9.15;;;2.05;;
13439;SDS011;6792;57.698;11.946;2022-10-13T03:09:17;8.98;;;2.40;;
13439;SDS011;6792;57.698;11.946;2022-10-13T03:11:46;11.38;;;2.80;;
13439;SDS011;6792;57.698;11.946;2022-10-13T03:14:15;11.08;;;2.77;;
13439;SDS011;6792;57.698;11.946;2022-10-13T03:16:44;10.80;;;2.80;;
13439;SDS011;6792;57.698;11.946;2022-10-13T03:19:13;7.47;;;2.42;;
13439;SDS011;6792;57.698;11.946;2022-10-13T03:21:42;11.90;;;2.62;;
13439;SDS011;6792;57.698;11.946;2022-10-13T03:24:11;8.60;;;2.30;;
13439;SDS011;6792;57.698;11.946;2022-10-13T03:26:40;14.78;;;2.22;;
13439;SDS011;6792;57.698;11.946;2022-10-13T03:29:11;15.03;;;2.60;;
13439;SDS011;6792;57.698;11.946;2022-10-13T03:31:41;11.78;;;2.50;;
13439;SDS011;6792;57.698;11.946;2022-10-13T03:34:10;7.83;;;2.30;;
13439;SDS011;6792;57.698;11.946;2022-10-13T03:36:41;10.45;;;2.35;;
13439;SDS011;6792;57.698;11.946;2022-10-13T03:39:10;8.63;;;2.05;;
13439;SDS011;6792;57.698;11.946;2022-10-13T03:41:39;11.08;;;2.67;;
13439;SDS011;6792;57.698;11.946;2022-10-13T03:44:09;6.35;;;2.58;;
13439;SDS011;6792;57.698;11.946;2022-10-13T03:46:38;7.25;;;2.62;;
13439;SDS011;6792;57.698;11.946;2022-10-13T03:49:08;10.95;;;2.20;;
13439;SDS011;6792;57.698;11.946;2022-10-13T03:51:37;10.50;;;2.42;;
13439;SDS011;6792;57.698;11.946;2022-10-13T03:54:06;8.95;;;2.80;;
13439;SDS011;6792;57.698;11.946;2022-10-13T03:56:37;12.58;;;2.30;;
13439;SDS011;6792;57.698;11.946;2022-10-13T03:59:09;8.55;;;2.50;;
13439;SDS011;6792;57.698;11.946;2022-10-13T04:01:39;10.20;;;2.20;;
13439;SDS011;6792;57.698;11.946;2022-10-13T04:04:09;13.28;;;2.83;;
13439;SDS011;6792;57.698;11.946;2022-10-13T04:06:38;7.78;;;2.10;;
13439;SDS011;6792;57.698;11.946;2022-10-13T04:09:07;13.28;;;2.37;;
13439;SDS011;6792;57.698;11.946;2022-10-13T04:11:36;15.25;;;2.20;;
13439;SDS011;6792;57.698;11.946;2022-10-13T04:14:05;8.70;;;2.20;;
13439;SDS011;6792;57.698;11.946;2022-10-13T04:16:34;12.05;;;2.12;;
13439;SDS011;6792;57.698;11.946;2022-10-13T04:19:05;9.73;;;2.27;;
13439;SDS011;6792;57.698;11.946;2022-10-13T04:21:34;8.65;;;2.17;;
13439;SDS011;6792;57.698;11.946;2022-10-13T04:24:03;11.88;;;2.83;;
13439;SDS011;6792;57.698;11.946;2022-10-13T04:26:34;9.43;;;1.95;;
13439;SDS011;6792;57.698;11.946;2022-10-13T04:29:03;7.40;;;2.67;;
13439;SDS011;6792;57.698;11.946;2022-10-13T04:31:34;10.03;;;2.35;;
13439;SDS011;6792;57.698;11.946;2022-10-13T04:34:04;7.17;;;2.02;;
13439;SDS011;6792;57.698;11.946;2022-10-13T04:36:34;13.03;;;3.17;;
13439;SDS011;6792;57.698;11.946;2022-10-13T04:39:03;6.28;;;2.10;;
13439;SDS011;6792;57.698;11.946;2022-10-13T04:41:32;11.28;;;2.35;;
13439;SDS011;6792;57.698;11.946;2022-10-13T04:44:01;7.87;;;2.50;;
13439;SDS011;6792;57.698;11.946;2022-10-13T04:46:30;11.85;;;2.80;;
13439;SDS011;6792;57.698;11.946;2022-10-13T04:48:59;13.85;;;2.75;;
13439;SDS011;6792;57.698;11.946;2022-10-13T04:51:28;12.95;;;2.85;;
13439;SDS011;6792;57.698;11.946;2022-10-13T04:53:57;12.53;;;2.55;;
13439;SDS011;6792;57.698;11.946;2022-10-13T04:56:27;7.30;;;2.10;;
13439;SDS011;6792;57.698;11.946;2022-10-13T04:58:56;14.33;;;2.87;;
13439;SDS011;6792;57.698;11.946;2022-10-13T05:01:26;12.30;;;2.33;;
13439;SDS011;6792;57.698;11.946;2022-10-13T05:03:55;13.00;;;3.12;;
13439;SDS011;6792;57.698;11.946;2022-10-13T05:06:27;10.65;;;2.22;;
13439;SDS011;6792;57.698;11.946;2022-10-13T05:08:57;13.05;;;2.67;;
13439;SDS011;6792;57.698;11.946;2022-10-13T05:11:26;10.20;;;2.85;;
13439;SDS011;6792;57.698;11.946;2022-10-13T05:13:55;7.50;;;1.72;;
13439;SDS011;6792;57.698;11.946;2022-10-13T05:16:25;10.88;;;2.20;;
13439;SDS011;6792;57.698;11.946;2022-10-13T05:18:56;11.70;;;2.37;;
13439;SDS011;6792;57.698;11.946;2022-10-13T05:21:26;12.20;;;2.40;;
13439;SDS011;6792;57.698;11.946;2022-10-13T05:23:56;12.63;;;2.30;;
13439;SDS011;6792;57.698;11.946;2022-10-13T05:26:27;7.72;;;2.17;;
13439;SDS011;6792;57.698;11.946;2022-10-13T05:28:59;8.30;;;1.87;;
13439;SDS011;6792;57.698;11.946;2022-10-13T05:31:30;11.12;;;2.87;;
13439;SDS011;6792;57.698;11.946;2022-10-13T05:34:00;6.62;;;2.15;;
13439;SDS011;6792;57.698;11.946;2022-10-13T05:36:29;7.03;;;2.50;;
13439;SDS011;6792;57.698;11.946;2022-10-13T05:39:00;10.93;;;2.72;;
13439;SDS011;6792;57.698;11.946;2022-10-13T05:41:30;12.03;;;2.70;;
13439;SDS011;6792;57.698;11.946;2022-10-13T05:44:00;11.25;;;2.58;;
13439;SDS011;6792;57.698;11.946;2022-10-13T05:46:31;9.33;;;2.22;;
13439;SDS011;6792;57.698;11.946;2022-10-13T05:49:01;9.68;;;2.52;;
13439;SDS011;6792;57.698;11.946;2022-10-13T05:51:29;13.43;;;2.47;;
13439;SDS011;6792;57.698;11.946;2022-10-13T05:54:02;10.00;;;2.17;;
13439;SDS011;6792;57.698;11.946;2022-10-13T05:56:35;8.78;;;2.35;;
13439;SDS011;6792;57.698;11.946;2022-10-13T05:59:07;5.67;;;1.82;;
13439;SDS011;6792;57.698;11.946;2022-10-13T06:01:46;13.43;;;2.47;;
13439;SDS011;6792;57.698;11.946;2022-10-13T06:04:16;6.83;;;2.40;;
13439;SDS011;6792;57.698;11.946;2022-10-13T06:06:47;15.18;;;2.47;;
13439;SDS011;6792;57.698;11.946;2022-10-13T06:09:17;11.43;;;2.87;;
13439;SDS011;6792;57.698;11.946;2022-10-13T06:11:46;8.83;;;2.37;;
13439;SDS011;6792;57.698;11.946;2022-10-13T06:14:15;7.67;;;2.50;;
13439;SDS011;6792;57.698;11.946;2022-10-13T06:16:44;10.65;;;2.58;;
13439;SDS011;6792;57.698;11.946;2022-10-13T06:19:13;8.10;;;2.35;;
13439;SDS011;6792;57.698;11.946;2022-10-13T06:21:42;8.70;;;2.90;;
13439;SDS011;6792;57.698;11.946;2022-10-13T06:24:11;12.63;;;3.25;;
13439;SDS011;6792;57.698;11.946;2022-10-13T06:26:40;10.78;;;3.02;;
13439;SDS011;6792;57.698;11.946;2022-10-13T06:29:09;10.70;;;3.15;;
13439;SDS011;6792;57.698;11.946;2022-10-13T06:31:37;10.78;;;2.72;;
13439;SDS011;6792;57.698;11.946;2022-10-13T06:34:06;8.50;;;2.42;;
13439;SDS011;6792;57.698;11.946;2022-10-13T06:36:35;6.67;;;2.67;;
13439;SDS011;6792;57.698;11.946;2022-10-13T06:39:04;9.43;;;2.40;;
13439;SDS011;6792;57.698;11.946;2022-10-13T06:41:33;9.40;;;2.77;;
13439;SDS011;6792;57.698;11.946;2022-10-13T06:44:03;13.03;;;2.77;;
13439;SDS011;6792;57.698;11.946;2022-10-13T06:46:31;11.03;;;2.70;;
13439;SDS011;6792;57.698;11.946;2022-10-13T06:49:00;10.90;;;2.60;;
13439;SDS011;6792;57.698;11.946;2022-10-13T06:51:29;11.05;;;2.65;;
13439;SDS011;6792;57.698;11.946;2022-10-13T06:53:58;8.70;;;2.60;;
13439;SDS011;6792;57.698;11.946;2022-10-13T06:56:28;7.27;;;2.20;;
13439;SDS011;6792;57.698;11.946;2022-10-13T06:58:57;10.40;;;2.62;;
13439;SDS011;6792;57.698;11.946;2022-10-13T07:01:26;9.87;;;2.47;;
13439;SDS011;6792;57.698;11.946;2022-10-13T07:03:55;7.65;;;2.37;;
13439;SDS011;6792;57.698;11.946;2022-10-13T07:06:24;12.00;;;2.52;;
13439;SDS011;6792;57.698;11.946;2022-10-13T07:08:53;7.03;;;2.10;;
13439;SDS011;6792;57.698;11.946;2022-10-13T07:11:22;15.45;;;2.33;;
13439;SDS011;6792;57.698;11.946;2022-10-13T07:13:53;13.00;;;2.40;;
13439;SDS011;6792;57.698;11.946;2022-10-13T07:16:24;7.05;;;2.25;;
13439;SDS011;6792;57.698;11.946;2022-10-13T07:18:53;6.90;;;2.42;;
13439;SDS011;6792;57.698;11.946;2022-10-13T07:21:22;7.95;;;2.72;;
13439;SDS011;6792;57.698;11.946;2022-10-13T07:23:51;7.00;;;1.90;;
13439;SDS011;6792;57.698;11.946;2022-10-13T07:26:20;7.10;;;2.33;;
13439;SDS011;6792;57.698;11.946;2022-10-13T07:28:49;6.75;;;2.37;;
13439;SDS011;6792;57.698;11.946;2022-10-13T07:31:19;8.63;;;2.52;;
13439;SDS011;6792;57.698;11.946;2022-10-13T07:33:48;14.60;;;3.83;;
13439;SDS011;6792;57.698;11.946;2022-10-13T07:36:17;10.23;;;2.52;;
13439;SDS011;6792;57.698;11.946;2022-10-13T07:38:46;11.80;;;2.45;;
13439;SDS011;6792;57.698;11.946;2022-10-13T07:41:15;13.83;;;2.30;;
13439;SDS011;6792;57.698;11.946;2022-10-13T07:43:44;10.45;;;2.77;;
13439;SDS011;6792;57.698;11.946;2022-10-13T07:46:13;8.85;;;2.67;;
13439;SDS011;6792;57.698;11.946;2022-10-13T07:48:42;6.55;;;2.00;;
13439;SDS011;6792;57.698;11.946;2022-10-13T07:51:11;11.80;;;2.42;;
13439;SDS011;6792;57.698;11.946;2022-10-13T07:53:41;6.62;;;2.17;;
13439;SDS011;6792;57.698;11.946;2022-10-13T07:56:12;9.05;;;2.30;;
13439;SDS011;6792;57.698;11.946;2022-10-13T07:58:43;9.90;;;2.40;;
13439;SDS011;6792;57.698;11.946;2022-10-13T08:01:14;7.28;;;2.62;;
13439;SDS011;6792;57.698;11.946;2022-10-13T08:03:43;9.48;;;2.02;;
13439;SDS011;6792;57.698;11.946;2022-10-13T08:06:12;12.10;;;2.75;;
13439;SDS011;6792;57.698;11.946;2022-10-13T08:08:42;12.00;;;2.90;;
13439;SDS011;6792;57.698;11.946;2022-10-13T08:11:11;11.40;;;2.37;;
13439;SDS011;6792;57.698;11.946;2022-10-13T08:13:42;12.25;;;2.42;;
13439;SDS011;6792;57.698;11.946;2022-10-13T08:16:16;12.80;;;2.83;;
13439;SDS011;6792;57.698;11.946;2022-10-13T08:18:45;9.93;;;2.70;;
13439;SDS011;6792;57.698;11.946;2022-10-13T08:21:14;4.40;;;2.40;;
13439;SDS011;6792;57.698;11.946;2022-10-13T08:23:45;8.00;;;2.10;;
13439;SDS011;6792;57.698;11.946;2022-10-13T08:26:15;4.83;;;1.80;;
13439;SDS011;6792;57.698;11.946;2022-10-13T08:28:46;11.78;;;2.45;;
13439;SDS011;6792;57.698;11.946;2022-10-13T08:31:15;8.63;;;2.33;;
13439;SDS011;6792;57.698;11.946;2022-10-13T08:33:44;13.93;;;2.45;;
13439;SDS011;6792;57.698;11.946;2022-10-13T08:36:13;4.53;;;1.95;;
13439;SDS011;6792;57.698;11.946;2022-10-13T08:38:43;7.33;;;1.87;;
13439;SDS011;6792;57.698;11.946;2022-10-13T08:41:14;4.70;;;1.98;;
13439;SDS011;6792;57.698;11.946;2022-10-13T08:43:45;8.08;;;2.15;;
13439;SDS011;6792;57.698;11.946;2022-10-13T08:46:19;7.80;;;2.27;;
13439;SDS011;6792;57.698;11.946;2022-10-13T08:48:50;9.18;;;1.90;;
13439;SDS011;6792;57.698;11.946;2022-10-13T08:51:19;8.93;;;2.17;;
13439;SDS011;6792;57.698;11.946;2022-10-13T08:53:48;15.93;;;2.83;;
13439;SDS011;6792;57.698;11.946;2022-10-13T08:56:18;8.33;;;2.60;;
13439;SDS011;6792;57.698;11.946;2022-10-13T08:58:49;10.85;;;2.55;;
13439;SDS011;6792;57.698;11.946;2022-10-13T09:01:22;11.28;;;2.35;;
13439;SDS011;6792;57.698;11.946;2022-10-13T09:04:09;12.88;;;2.40;;
13439;SDS011;6792;57.698;11.946;2022-10-13T09:06:31;13.53;;;2.80;;
13439;SDS011;6792;57.698;11.946;2022-10-13T09:09:02;8.20;;;2.22;;
13439;SDS011;6792;57.698;11.946;2022-10-13T09:11:33;11.45;;;2.33;;
13439;SDS011;6792;57.698;11.946;2022-10-13T09:14:04;7.30;;;2.02;;
13439;SDS011;6792;57.698;11.946;2022-10-13T09:16:35;11.48;;;2.33;;
13439;SDS011;6792;57.698;11.946;2022-10-13T09:19:11;10.25;;;2.75;;
13439;SDS011;6792;57.698;11.946;2022-10-13T09:21:49;6.42;;;2.35;;
13439;SDS011;6792;57.698;11.946;2022-10-13T09:24:20;12.03;;;2.80;;
13439;SDS011;6792;57.698;11.946;2022-10-13T09:26:51;15.72;;;3.37;;
13439;SDS011;6792;57.698;11.946;2022-10-13T09:29:30;9.48;;;2.30;;
13439;SDS011;6792;57.698;11.946;2022-10-13T09:32:15;7.25;;;2.33;;
13439;SDS011;6792;57.698;11.946;2022-10-13T09:34:45;6.80;;;2.42;;
13439;SDS011;6792;57.698;11.946;2022-10-13T09:37:16;7.92;;;2.10;;
13439;SDS011;6792;57.698;11.946;2022-10-13T09:39:58;9.03;;;2.60;;
13439;SDS011;6792;57.698;11.946;2022-10-13T09:42:28;11.68;;;2.65;;
13439;SDS011;6792;57.698;11.946;2022-10-13T09:44:58;9.03;;;2.37;;
13439;SDS011;6792;57.698;11.946;2022-10-13T09:47:29;12.00;;;2.67;;
13439;SDS011;6792;57.698;11.946;2022-10-13T09:50:00;12.13;;;3.10;;
13439;SDS011;6792;57.698;11.946;2022-10-13T09:52:33;6.55;;;2.40;;
13439;SDS011;6792;57.698;11.946;2022-10-13T09:55:04;8.25;;;2.45;;
13439;SDS011;6792;57.698;11.946;2022-10-13T09:57:38;7.92;;;1.95;;
13439;SDS011;6792;57.698;11.946;2022-10-13T10:00:13;11.48;;;2.77;;
13439;SDS011;6792;57.698;11.946;2022-10-13T10:02:48;7.03;;;2.58;;
13439;SDS011;6792;57.698;11.946;2022-10-13T10:05:22;7.58;;;2.20;;
13439;SDS011;6792;57.698;11.946;2022-10-13T10:07:52;8.33;;;2.60;;
13439;SDS011;6792;57.698;11.946;2022-10-13T10:10:27;9.88;;;2.40;;
13439;SDS011;6792;57.698;11.946;2022-10-13T10:12:59;12.23;;;2.47;;
13439;SDS011;6792;57.698;11.946;2022-10-13T10:15:31;8.30;;;2.10;;
13439;SDS011;6792;57.698;11.946;2022-10-13T10:18:04;8.08;;;2.58;;
13439;SDS011;6792;57.698;11.946;2022-10-13T10:20:39;5.40;;;2.87;;
13439;SDS011;6792;57.698;11.946;2022-10-13T10:23:11;7.47;;;2.60;;
13439;SDS011;6792;57.698;11.946;2022-10-13T10:25:43;6.90;;;2.35;;
13439;SDS011;6792;57.698;11.946;2022-10-13T10:28:23;7.12;;;2.35;;
13439;SDS011;6792;57.698;11.946;2022-10-13T10:31:09;12.03;;;2.50;;
13439;SDS011;6792;57.698;11.946;2022-10-13T10:33:44;8.70;;;2.85;;
13439;SDS011;6792;57.698;11.946;2022-10-13T10:36:18;9.30;;;2.47;;
13439;SDS011;6792;57.698;11.946;2022-10-13T10:38:49;8.30;;;3.17;;
13439;SDS011;6792;57.698;11.946;2022-10-13T10:41:25;9.95;;;2.60;;
13439;SDS011;6792;57.698;11.946;2022-10-13T10:44:00;11.18;;;2.65;;
13439;SDS011;6792;57.698;11.946;2022-10-13T10:46:33;14.83;;;3.00;;
13439;SDS011;6792;57.698;11.946;2022-10-13T10:49:11;8.98;;;2.77;;
13439;SDS011;6792;57.698;11.946;2022-10-13T10:51:39;16.15;;;3.17;;
13439;SDS011;6792;57.698;11.946;2022-10-13T10:54:15;12.60;;;2.95;;
13439;SDS011;6792;57.698;11.946;2022-10-13T10:56:48;7.58;;;2.70;;
13439;SDS011;6792;57.698;11.946;2022-10-13T10:59:25;7.42;;;2.60;;
13439;SDS011;6792;57.698;11.946;2022-10-13T11:02:02;9.25;;;2.95;;
13439;SDS011;6792;57.698;11.946;2022-10-13T11:04:39;8.63;;;2.52;;
13439;SDS011;6792;57.698;11.946;2022-10-13T11:07:11;10.20;;;2.42;;
13439;SDS011;6792;57.698;11.946;2022-10-13T11:10:02;7.97;;;2.17;;
13439;SDS011;6792;57.698;11.946;2022-10-13T11:12:48;6.45;;;2.20;;
13439;SDS011;6792;57.698;11.946;2022-10-13T11:15:52;10.90;;;2.60;;
13439;SDS011;6792;57.698;11.946;2022-10-13T11:24:53;5.65;;;2.33;;
13439;SDS011;6792;57.698;11.946;2022-10-13T11:27:35;9.30;;;2.92;;
13439;SDS011;6792;57.698;11.946;2022-10-13T11:33:48;9.73;;;2.60;;
13439;SDS011;6792;57.698;11.946;2022-10-13T11:36:28;8.48;;;2.75;;
13439;SDS011;6792;57.698;11.946;2022-10-13T11:38:59;8.70;;;2.80;;
13439;SDS011;6792;57.698;11.946;2022-10-13T11:41:33;9.20;;;3.22;;
13439;SDS011;6792;57.698;11.946;2022-10-13T11:44:03;7.55;;;3.27;;
13439;SDS011;6792;57.698;11.946;2022-10-13T11:46:36;8.80;;;2.95;;
13439;SDS011;6792;57.698;11.946;2022-10-13T11:49:26;9.93;;;2.67;;
13439;SDS011;6792;57.698;11.946;2022-10-13T11:52:17;6.40;;;2.50;;
13439;SDS011;6792;57.698;11.946;2022-10-13T11:54:54;9.25;;;2.87;;
13439;SDS011;6792;57.698;11.946;2022-10-13T11:57:27;14.47;;;3.35;;
13439;SDS011;6792;57.698;11.946;2022-10-13T11:59:57;8.65;;;2.98;;
13439;SDS011;6792;57.698;11.946;2022-10-13T12:02:27;13.00;;;3.30;;
13439;SDS011;6792;57.698;11.946;2022-10-13T12:05:00;15.18;;;2.90;;
13439;SDS011;6792;57.698;11.946;2022-10-13T12:07:32;10.98;;;3.27;;
13439;SDS011;6792;57.698;11.946;2022-10-13T12:10:04;6.50;;;2.85;;
13439;SDS011;6792;57.698;11.946;2022-10-13T12:12:37;9.45;;;3.58;;
13439;SDS011;6792;57.698;11.946;2022-10-13T12:15:31;11.03;;;3.10;;
13439;SDS011;6792;57.698;11.946;2022-10-13T12:18:02;11.15;;;3.33;;
13439;SDS011;6792;57.698;11.946;2022-10-13T12:20:51;8.65;;;2.83;;
13439;SDS011;6792;57.698;11.946;2022-10-13T12:23:21;8.75;;;2.92;;
13439;SDS011;6792;57.698;11.946;2022-10-13T12:25:50;12.40;;;3.55;;
13439;SDS011;6792;57.698;11.946;2022-10-13T12:28:24;17.17;;;3.20;;
13439;SDS011;6792;57.698;11.946;2022-10-13T12:30:55;10.82;;;3.45;;
13439;SDS011;6792;57.698;11.946;2022-10-13T12:33:26;10.58;;;3.12;;
13439;SDS011;6792;57.698;11.946;2022-10-13T12:36:10;17.12;;;3.55;;
13439;SDS011;6792;57.698;11.946;2022-10-13T12:38:42;14.65;;;3.30;;
13439;SDS011;6792;57.698;11.946;2022-10-13T12:41:14;11.30;;;3.50;;
13439;SDS011;6792;57.698;11.946;2022-10-13T12:43:46;6.72;;;3.35;;
13439;SDS011;6792;57.698;11.946;2022-10-13T12:46:34;7.37;;;3.62;;
13439;SDS011;6792;57.698;11.946;2022-10-13T12:49:11;6.58;;;3.17;;
13439;SDS011;6792;57.698;11.946;2022-10-13T12:51:42;9.83;;;3.25;;
13439;SDS011;6792;57.698;11.946;2022-10-13T12:54:17;12.80;;;3.70;;
13439;SDS011;6792;57.698;11.946;2022-10-13T12:56:48;10.93;;;3.20;;
13439;SDS011;6792;57.698;11.946;2022-10-13T12:59:19;18.92;;;3.72;;
13439;SDS011;6792;57.698;11.946;2022-10-13T13:01:53;7.72;;;2.92;;
13439;SDS011;6792;57.698;11.946;2022-10-13T13:04:27;9.25;;;3.50;;
13439;SDS011;6792;57.698;11.946;2022-10-13T13:07:23;11.45;;;3.10;;
13439;SDS011;6792;57.698;11.946;2022-10-13T13:10:09;8.85;;;3.45;;
13439;SDS011;6792;57.698;11.946;2022-10-13T13:12:43;7.67;;;3.08;;
13439;SDS011;6792;57.698;11.946;2022-10-13T13:15:26;12.20;;;3.92;;
13439;SDS011;6792;57.698;11.946;2022-10-13T13:20:50;16.17;;;4.12;;
13439;SDS011;6792;57.698;11.946;2022-10-13T13:23:20;7.90;;;3.22;;
13439;SDS011;6792;57.698;11.946;2022-10-13T13:25:58;9.30;;;3.15;;
13439;SDS011;6792;57.698;11.946;2022-10-13T13:28:29;9.93;;;2.95;;
13439;SDS011;6792;57.698;11.946;2022-10-13T13:30:59;11.57;;;3.40;;
13439;SDS011;6792;57.698;11.946;2022-10-13T13:33:27;7.65;;;2.83;;
13439;SDS011;6792;57.698;11.946;2022-10-13T13:35:56;14.87;;;4.12;;
13439;SDS011;6792;57.698;11.946;2022-10-13T13:38:25;9.53;;;3.05;;
13439;SDS011;6792;57.698;11.946;2022-10-13T13:40:54;6.90;;;3.22;;
13439;SDS011;6792;57.698;11.946;2022-10-13T13:43:23;8.80;;;2.80;;
13439;SDS011;6792;57.698;11.946;2022-10-13T13:45:52;11.80;;;3.47;;
13439;SDS011;6792;57.698;11.946;2022-10-13T13:48:21;7.33;;;2.87;;
13439;SDS011;6792;57.698;11.946;2022-10-13T13:50:52;8.65;;;3.37;;
13439;SDS011;6792;57.698;11.946;2022-10-13T13:53:21;9.03;;;3.05;;
13439;SDS011;6792;57.698;11.946;2022-10-13T13:55:50;13.50;;;3.72;;
13439;SDS011;6792;57.698;11.946;2022-10-13T13:58:18;13.72;;;4.55;;
13439;SDS011;6792;57.698;11.946;2022-10-13T14:00:47;11.35;;;4.00;;
13439;SDS011;6792;57.698;11.946;2022-10-13T14:03:16;7.62;;;3.58;;
13439;SDS011;6792;57.698;11.946;2022-10-13T14:05:45;11.60;;;3.90;;
13439;SDS011;6792;57.698;11.946;2022-10-13T14:08:14;8.53;;;3.10;;
13439;SDS011;6792;57.698;11.946;2022-10-13T14:10:43;10.13;;;3.65;;
13439;SDS011;6792;57.698;11.946;2022-10-13T14:13:12;9.43;;;3.87;;
13439;SDS011;6792;57.698;11.946;2022-10-13T14:15:41;9.75;;;2.90;;
13439;SDS011;6792;57.698;11.946;2022-10-13T14:18:10;10.50;;;3.45;;
13439;SDS011;6792;57.698;11.946;2022-10-13T14:20:57;13.95;;;3.95;;
13439;SDS011;6792;57.698;11.946;2022-10-13T14:23:25;6.22;;;3.42;;
13439;SDS011;6792;57.698;11.946;2022-10-13T14:25:54;7.22;;;3.05;;
13439;SDS011;6792;57.698;11.946;2022-10-13T14:28:23;6.87;;;3.40;;
13439;SDS011;6792;57.698;11.946;2022-10-13T14:30:52;8.33;;;3.85;;
13439;SDS011;6792;57.698;11.946;2022-10-13T14:33:21;7.12;;;2.87;;
13439;SDS011;6792;57.698;11.946;2022-10-13T14:35:58;8.45;;;3.65;;
13439;SDS011;6792;57.698;11.946;2022-10-13T14:38:27;11.53;;;3.47;;
13439;SDS011;6792;57.698;11.946;2022-10-13T14:40:59;10.03;;;3.52;;
13439;SDS011;6792;57.698;11.946;2022-10-13T14:43:28;6.25;;;3.20;;
13439;SDS011;6792;57.698;11.946;2022-10-13T14:46:00;8.20;;;3.62;;
13439;SDS011;6792;57.698;11.946;2022-10-13T14:48:30;8.53;;;3.20;;
13439;SDS011;6792;57.698;11.946;2022-10-13T14:50:59;7.28;;;3.15;;
13439;SDS011;6792;57.698;11.946;2022-10-13T14:53:33;10.23;;;3.52;;
13439;SDS011;6792;57.698;11.946;2022-10-13T14:56:10;10.03;;;3.22;;
13439;SDS011;6792;57.698;11.946;2022-10-13T14:58:42;14.03;;;3.17;;
13439;SDS011;6792;57.698;11.946;2022-10-13T15:01:11;12.63;;;4.12;;
13439;SDS011;6792;57.698;11.946;2022-10-13T15:03:40;11.95;;;4.15;;
13439;SDS011;6792;57.698;11.946;2022-10-13T15:06:10;6.83;;;3.35;;
13439;SDS011;6792;57.698;11.946;2022-10-13T15:08:41;11.18;;;3.02;;
13439;SDS011;6792;57.698;11.946;2022-10-13T15:11:11;10.38;;;4.15;;
13439;SDS011;6792;57.698;11.946;2022-10-13T15:13:41;16.15;;;4.08;;
13439;SDS011;6792;57.698;11.946;2022-10-13T15:16:14;11.65;;;3.20;;
13439;SDS011;6792;57.698;11.946;2022-10-13T15:18:44;9.23;;;3.35;;
13439;SDS011;6792;57.698;11.946;2022-10-13T15:21:14;10.08;;;3.85;;
13439;SDS011;6792;57.698;11.946;2022-10-13T15:23:44;12.18;;;4.62;;